createdAt,value
2022-11-23T08:07:38.079Z,8.67
2022-11-23T08:08:39.543Z,8.71
2022-11-23T08:09:40.968Z,9.08
2022-11-23T08:10:47.207Z,9.50
2022-11-23T08:11:51.404Z,10.26
2022-11-23T08:12:56.132Z,10.58
2022-11-23T08:13:57.439Z,10.74
2022-11-23T08:14:58.861Z,10.78
2022-11-23T08:16:01.108Z,10.94
2022-11-23T08:17:02.629Z,11.39
2022-11-23T08:18:05.044Z,10.91
2022-11-23T08:19:06.528Z,11.33
2022-11-23T08:20:08.254Z,11.77
2022-11-23T08:21:09.690Z,11.80
2022-11-23T08:22:14.720Z,12.02
2022-11-23T08:23:17.314Z,12.35
2022-11-23T08:24:18.801Z,12.61
2022-11-23T08:25:20.167Z,12.78
2022-11-23T08:26:21.723Z,12.47
2022-11-23T08:27:26.216Z,12.28
2022-11-23T08:28:27.590Z,12.22
2022-11-23T08:29:29.671Z,12.40
2022-11-23T08:30:32.959Z,13.15
2022-11-23T08:31:34.426Z,12.78
2022-11-23T08:32:39.872Z,12.63
2022-11-23T08:33:41.354Z,12.88
2022-11-23T08:34:44.425Z,12.85
2022-11-23T08:35:45.851Z,12.82
2022-11-23T08:36:48.177Z,12.97
2022-11-23T08:37:53.438Z,12.84
2022-11-23T08:38:54.903Z,12.52
2022-11-23T08:39:56.243Z,13.49
2022-11-23T08:41:02.313Z,13.05
2022-11-23T08:42:04.470Z,13.64
2022-11-23T08:43:09.751Z,13.10
2022-11-23T08:44:12.221Z,12.92
2022-11-23T08:45:13.713Z,11.94
2022-11-23T08:46:15.715Z,12.89
2022-11-23T08:47:17.111Z,12.79
2022-11-23T08:48:21.495Z,13.12
2022-11-23T08:49:22.916Z,13.97
2022-11-23T08:50:24.364Z,13.84
2022-11-23T08:51:25.760Z,13.49
2022-11-23T08:52:27.368Z,13.71
2022-11-23T08:53:28.860Z,14.48
2022-11-23T08:54:32.001Z,14.61
2022-11-23T08:55:36.569Z,14.56
2022-11-23T08:56:37.912Z,14.82
2022-11-23T08:57:39.270Z,13.79
2022-11-23T08:58:40.616Z,13.63
2022-11-23T08:59:42.018Z,13.01
2022-11-23T09:00:43.467Z,13.32
2022-11-23T09:01:45.308Z,13.31
2022-11-23T09:02:50.923Z,13.01
2022-11-23T09:03:54.660Z,12.73
2022-11-23T09:04:56.656Z,12.90
2022-11-23T09:06:00.275Z,13.84
2022-11-23T09:07:03.243Z,14.36
2022-11-23T09:08:05.349Z,12.85
2022-11-23T09:09:06.891Z,12.88
2022-11-23T09:10:09.957Z,13.37
2022-11-23T09:11:17.560Z,13.47
2022-11-23T09:12:19.214Z,13.34
2022-11-23T09:13:20.838Z,14.02
2022-11-23T09:14:23.447Z,13.12
2022-11-23T09:15:25.561Z,12.09
2022-11-23T09:16:32.419Z,12.71
2022-11-23T09:17:36.093Z,11.39
2022-11-23T09:18:37.789Z,11.23
2022-11-23T09:19:39.471Z,12.50
2022-11-23T09:20:41.309Z,13.28
2022-11-23T09:21:43.315Z,12.74
2022-11-23T09:22:50.911Z,12.36
2022-11-23T09:23:52.290Z,13.27
2022-11-23T09:24:53.895Z,12.50
2022-11-23T09:26:01.414Z,13.54
2022-11-23T09:27:02.771Z,11.87
2022-11-23T09:28:04.362Z,11.45
2022-11-23T09:29:09.566Z,11.42
2022-11-23T09:30:11.742Z,12.60
2022-11-23T09:31:13.116Z,13.51
2022-11-23T09:32:14.575Z,14.19
2022-11-23T09:33:16.400Z,13.16
2022-11-23T09:34:17.859Z,13.50
2022-11-23T09:35:19.181Z,12.83
2022-11-23T09:36:24.540Z,12.86
2022-11-23T09:37:25.923Z,13.12
2022-11-23T09:38:55.057Z,12.71
2022-11-23T09:39:52.825Z,12.80
2022-11-23T09:41:13.454Z,13.18
2022-11-23T09:42:45.472Z,14.82
2022-11-23T09:44:11.182Z,14.83
2022-11-23T09:45:38.086Z,14.72
2022-11-23T09:47:08.097Z,14.92
2022-11-23T09:48:31.519Z,13.81
2022-11-23T09:49:45.183Z,13.08
2022-11-23T09:50:48.297Z,13.04
2022-11-23T09:51:51.211Z,13.55
2022-11-23T09:52:53.947Z,13.74
2022-11-23T09:54:10.571Z,13.19
2022-11-23T09:55:24.482Z,13.29
2022-11-23T09:56:30.275Z,13.97
2022-11-23T09:57:34.549Z,14.96
2022-11-23T09:58:40.453Z,15.18
2022-11-23T09:59:47.125Z,14.68
2022-11-23T10:00:51.546Z,13.86
2022-11-23T10:01:57.229Z,15.26
2022-11-23T10:02:58.835Z,15.18
2022-11-23T10:04:00.421Z,14.73
2022-11-23T10:05:03.984Z,14.90
2022-11-23T10:06:14.073Z,13.67
2022-11-23T10:07:22.771Z,14.63
2022-11-23T10:08:56.574Z,14.32
2022-11-23T10:10:12.283Z,14.00
2022-11-23T10:11:23.904Z,13.96
2022-11-23T10:12:50.015Z,13.99
2022-11-23T10:14:19.448Z,14.16
2022-11-23T10:15:28.414Z,16.05
2022-11-23T10:16:44.510Z,15.81
2022-11-23T10:18:05.190Z,16.55
2022-11-23T10:19:18.152Z,16.43
2022-11-23T10:20:34.684Z,14.76
2022-11-23T10:21:39.161Z,15.76
2022-11-23T10:22:58.522Z,14.82
2022-11-23T10:24:19.207Z,15.62
2022-11-23T10:25:22.411Z,15.97
2022-11-23T10:26:32.321Z,15.62
2022-11-23T10:27:33.735Z,16.21
2022-11-23T10:28:36.344Z,15.97
2022-11-23T10:29:38.883Z,14.97
2022-11-23T10:30:40.610Z,14.85
2022-11-23T10:31:48.915Z,15.31
2022-11-23T10:33:05.334Z,15.58
2022-11-23T10:34:12.940Z,16.67
2022-11-23T10:35:27.494Z,15.91
2022-11-23T10:36:28.921Z,16.13
2022-11-23T10:37:31.583Z,16.38
2022-11-23T10:38:34.216Z,16.39
2022-11-23T10:39:35.588Z,16.62
2022-11-23T10:40:40.949Z,17.16
2022-11-23T10:41:44.172Z,14.68
2022-11-23T10:42:53.679Z,16.00
2022-11-23T10:43:58.304Z,16.32
2022-11-23T10:45:01.447Z,16.90
2022-11-23T10:46:33.751Z,16.80
2022-11-23T10:47:39.154Z,16.96
2022-11-23T10:48:40.826Z,16.59
2022-11-23T10:49:57.231Z,16.62
2022-11-23T10:51:16.882Z,16.46
2022-11-23T10:52:33.301Z,16.23
2022-11-23T10:53:35.029Z,15.42
2022-11-23T10:54:52.575Z,15.32
2022-11-23T10:55:58.016Z,16.08
2022-11-23T10:57:01.726Z,16.11
2022-11-23T10:58:03.362Z,15.98
2022-11-23T10:59:04.797Z,16.20
2022-11-23T11:00:09.795Z,15.47
2022-11-23T11:01:25.555Z,16.41
2022-11-23T11:02:32.512Z,16.75
2022-11-23T11:03:35.092Z,15.61
2022-11-23T11:04:36.505Z,16.13
2022-11-23T11:06:07.564Z,16.56
2022-11-23T11:07:22.260Z,15.43
2022-11-23T11:08:32.271Z,14.97
2022-11-23T11:09:34.213Z,15.79
2022-11-23T11:10:58.883Z,15.88
2022-11-23T11:12:00.262Z,15.37
2022-11-23T11:13:02.009Z,15.21
2022-11-23T11:14:17.026Z,14.34
2022-11-23T11:15:19.066Z,15.09
2022-11-23T11:16:34.975Z,15.08
2022-11-23T11:17:37.843Z,14.52
2022-11-23T11:18:39.252Z,15.09
2022-11-23T11:19:40.725Z,14.19
2022-11-23T11:20:45.857Z,13.63
2022-11-23T11:21:47.612Z,13.87
2022-11-23T11:22:49.482Z,14.40
2022-11-23T11:23:59.409Z,14.79
2022-11-23T11:25:04.326Z,13.81
2022-11-23T11:26:21.680Z,13.14
2022-11-23T11:27:25.729Z,14.87
2022-11-23T11:28:48.736Z,14.40
2022-11-23T11:30:00.393Z,13.75
2022-11-23T11:31:18.435Z,13.63
2022-11-23T11:32:38.933Z,14.60
2022-11-23T11:34:05.929Z,14.28
2022-11-23T11:35:17.619Z,14.60
2022-11-23T11:36:25.219Z,13.07
2022-11-23T11:37:34.636Z,12.24
2022-11-23T11:38:37.811Z,13.49
2022-11-23T11:39:46.260Z,13.32
2022-11-23T11:40:50.185Z,12.90
2022-11-23T11:41:54.758Z,14.41
2022-11-23T11:43:23.043Z,14.44
2022-11-23T11:44:33.381Z,14.99
2022-11-23T11:45:54.499Z,15.28
2022-11-23T11:47:25.475Z,12.85
2022-11-23T11:48:39.704Z,12.57
2022-11-23T11:49:45.764Z,12.20
2022-11-23T11:50:52.554Z,12.31
2022-11-23T11:52:02.348Z,13.01
2022-11-23T11:53:08.311Z,13.65
2022-11-23T11:54:37.282Z,13.94
2022-11-23T11:57:35.049Z,13.83
2022-11-23T11:58:41.718Z,13.28
2022-11-23T11:59:48.824Z,13.32
2022-11-23T12:00:51.526Z,12.92
2022-11-23T12:02:24.424Z,13.96
2022-11-23T12:03:37.255Z,13.84
2022-11-23T12:04:48.245Z,14.15
2022-11-23T12:05:52.759Z,12.47
2022-11-23T12:07:16.042Z,13.23
2022-11-23T12:08:50.793Z,11.77
2022-11-23T12:10:07.028Z,11.16
2022-11-23T12:11:10.207Z,12.27
2022-11-23T12:12:16.654Z,12.58
2022-11-23T12:13:19.920Z,12.41
2022-11-23T12:14:21.486Z,11.68
2022-11-23T12:15:55.661Z,10.76
2022-11-23T12:17:37.023Z,10.11
2022-11-23T12:18:45.866Z,11.23
2022-11-23T12:20:04.680Z,11.31
2022-11-23T12:21:28.070Z,11.31
2022-11-23T12:22:44.827Z,11.71
2022-11-23T12:24:14.194Z,11.75
2022-11-23T12:25:37.233Z,12.29
2022-11-23T12:26:54.409Z,12.06
2022-11-23T12:28:16.829Z,12.48
2022-11-23T12:29:36.144Z,12.68
2022-11-23T12:30:47.594Z,10.60
2022-11-23T12:32:26.756Z,10.64
2022-11-23T12:33:42.535Z,11.45
2022-11-23T12:35:11.842Z,10.21
2022-11-23T12:36:25.135Z,10.25
2022-11-23T12:38:00.466Z,11.21
2022-11-23T12:39:21.953Z,11.78
2022-11-23T12:40:37.980Z,11.91
2022-11-23T12:41:39.340Z,12.19
2022-11-23T12:42:45.899Z,11.86
2022-11-23T12:43:59.427Z,11.46
2022-11-23T12:45:27.038Z,12.04
2022-11-23T12:46:49.386Z,11.83
2022-11-23T12:48:12.326Z,11.72
2022-11-23T12:49:47.462Z,11.46
2022-11-23T12:51:07.304Z,11.57
2022-11-23T12:52:33.176Z,11.63
2022-11-23T12:54:22.374Z,10.56
2022-11-23T12:55:30.830Z,11.40
2022-11-23T12:56:51.511Z,10.89
2022-11-23T12:58:25.316Z,10.55
2022-11-23T12:59:36.148Z,10.72
2022-11-23T13:00:46.079Z,10.47
2022-11-23T13:01:57.360Z,10.51
2022-11-23T13:02:58.693Z,10.27
2022-11-23T13:04:15.028Z,11.06
2022-11-23T13:05:30.751Z,10.78
2022-11-23T13:07:26.213Z,10.95
2022-11-23T13:08:39.092Z,10.72
2022-11-23T13:09:59.351Z,11.85
2022-11-23T13:11:28.341Z,11.57
2022-11-23T13:12:38.580Z,10.84
2022-11-23T13:14:15.238Z,10.33
2022-11-23T13:15:19.226Z,10.07
2022-11-23T13:16:44.348Z,9.99
2022-11-23T13:17:57.653Z,10.51
2022-11-23T13:19:26.680Z,9.63
2022-11-23T13:20:42.265Z,10.50
2022-11-23T13:21:46.075Z,10.52
2022-11-23T13:22:49.095Z,10.74
2022-11-23T13:23:50.756Z,11.26
2022-11-23T13:25:14.132Z,11.68
2022-11-23T13:26:18.891Z,11.69
2022-11-23T13:27:32.028Z,11.55
2022-11-23T13:28:33.548Z,10.76
2022-11-23T13:29:50.324Z,11.02
2022-11-23T13:31:16.942Z,11.20
2022-11-23T13:32:57.678Z,10.27
2022-11-23T13:34:20.360Z,10.02
2022-11-23T13:35:24.535Z,10.69
2022-11-23T13:37:56.265Z,10.48
2022-11-23T13:38:59.147Z,10.81
2022-11-23T13:40:03.569Z,11.11
2022-11-23T13:41:34.030Z,10.87
2022-11-23T13:42:35.756Z,11.04
2022-11-23T13:43:37.271Z,11.24
2022-11-23T13:44:41.908Z,10.93
2022-11-23T13:45:43.541Z,11.25
2022-11-23T13:47:00.782Z,11.18
2022-11-23T13:48:34.192Z,11.79
2022-11-23T13:49:48.639Z,11.14
2022-11-23T13:50:50.848Z,10.95
2022-11-23T13:52:24.441Z,10.80
2022-11-23T13:53:38.976Z,11.11
2022-11-23T13:54:40.358Z,11.11
2022-11-23T13:55:42.698Z,10.65
2022-11-23T13:56:44.845Z,10.73
2022-11-23T13:58:21.693Z,10.55
2022-11-23T13:59:27.433Z,11.01
2022-11-23T14:00:48.952Z,10.68
2022-11-23T14:02:08.752Z,10.64
2022-11-23T14:03:48.303Z,10.95
2022-11-23T14:04:52.825Z,11.23
2022-11-23T14:05:59.351Z,11.51
2022-11-23T14:07:08.739Z,11.75
2022-11-23T14:08:12.528Z,11.77
2022-11-23T14:09:51.263Z,11.42
2022-11-23T14:10:54.173Z,11.81
2022-11-23T14:12:07.678Z,11.52
2022-11-23T14:13:17.965Z,11.55
2022-11-23T14:14:23.429Z,11.06
2022-11-23T14:15:29.031Z,11.18
2022-11-23T14:16:46.115Z,11.13
2022-11-23T14:17:58.719Z,11.40
2022-11-23T14:19:32.047Z,11.44
2022-11-23T14:20:48.575Z,11.63
2022-11-23T14:21:58.905Z,11.19
2022-11-23T14:23:22.153Z,10.88
2022-11-23T14:24:46.392Z,10.69
2022-11-23T14:26:15.921Z,10.50
2022-11-23T14:27:47.846Z,10.08
2022-11-23T14:29:07.528Z,10.24
2022-11-23T14:30:50.159Z,10.45
2022-11-23T14:31:57.709Z,10.36
2022-11-23T14:33:11.327Z,11.09
2022-11-23T14:34:50.329Z,11.02
2022-11-23T14:35:51.621Z,11.26
2022-11-23T14:37:34.295Z,10.35
2022-11-23T14:39:07.074Z,10.34
2022-11-23T14:40:38.118Z,10.20
2022-11-23T14:41:42.314Z,9.79
2022-11-23T14:42:50.562Z,9.63
2022-11-23T14:43:53.088Z,9.40
2022-11-23T14:44:57.869Z,9.12
2022-11-23T14:46:04.413Z,8.52
2022-11-23T14:47:07.827Z,8.31
2022-11-23T14:48:22.479Z,8.46
2022-11-23T14:49:24.824Z,7.96
2022-11-23T14:50:29.292Z,7.97
2022-11-23T14:51:34.282Z,7.76
2022-11-23T14:52:37.004Z,7.70
2022-11-23T14:53:46.886Z,7.65
2022-11-23T14:54:50.915Z,7.42
2022-11-23T14:55:52.393Z,7.41
2022-11-23T14:57:01.464Z,7.24
2022-11-23T14:58:05.342Z,7.18
2022-11-23T14:59:36.718Z,7.42
2022-11-23T15:00:44.219Z,7.33
2022-11-23T15:01:53.031Z,7.20
2022-11-23T15:02:56.632Z,7.12
2022-11-23T15:04:00.087Z,7.21
2022-11-23T15:05:12.448Z,7.22
2022-11-23T15:06:18.273Z,7.22
2022-11-23T15:07:23.533Z,7.14
2022-11-23T15:08:30.074Z,7.14
2022-11-23T15:09:54.245Z,7.35
2022-11-23T15:11:13.003Z,7.16
2022-11-23T15:12:29.543Z,7.15
2022-11-23T15:13:39.207Z,7.25
2022-11-23T15:14:43.363Z,7.22
2022-11-23T15:15:45.758Z,6.92
2022-11-23T15:16:47.679Z,7.00
2022-11-23T15:18:02.613Z,7.00
2022-11-23T15:19:17.999Z,6.96
2022-11-23T15:20:20.531Z,6.93
2022-11-23T15:21:28.801Z,6.87
2022-11-23T15:22:32.048Z,6.85
2022-11-23T15:23:57.212Z,6.78
2022-11-23T15:25:08.210Z,6.89
2022-11-23T15:26:46.287Z,6.86
2022-11-23T15:27:45.267Z,6.71
2022-11-23T15:28:46.833Z,6.68
2022-11-23T15:29:54.384Z,6.89
2022-11-23T15:30:58.653Z,6.93
2022-11-23T15:32:34.671Z,6.95
2022-11-23T15:33:25.594Z,6.81
2022-11-23T15:34:27.824Z,6.96
2022-11-23T15:35:34.202Z,6.96
2022-11-23T15:36:38.333Z,6.94
2022-11-23T15:37:51.345Z,7.00
2022-11-23T15:38:54.370Z,6.92
2022-11-23T15:39:56.639Z,6.99
2022-11-23T15:41:04.998Z,7.01
2022-11-23T15:42:07.063Z,6.98
2022-11-23T15:43:15.958Z,6.92
2022-11-23T15:44:30.441Z,6.93
2022-11-23T15:45:35.930Z,6.93
2022-11-23T15:46:38.777Z,6.93
2022-11-23T15:47:40.232Z,6.96
2022-11-23T15:48:41.607Z,6.83
2022-11-23T15:49:43.031Z,6.81
2022-11-23T15:50:51.319Z,6.86
2022-11-23T15:51:59.616Z,6.88
2022-11-23T15:53:02.255Z,6.86
2022-11-23T15:54:04.035Z,6.88
2022-11-23T15:55:14.441Z,6.76
2022-11-23T15:56:34.181Z,6.92
2022-11-23T15:57:35.775Z,6.73
2022-11-23T15:58:37.329Z,6.86
2022-11-23T15:59:49.001Z,6.90
2022-11-23T16:01:00.343Z,6.85
2022-11-23T16:02:07.155Z,6.89
2022-11-23T16:03:28.955Z,6.86
2022-11-23T16:04:40.058Z,6.82
2022-11-23T16:05:41.460Z,6.85
2022-11-23T16:06:47.637Z,6.92
2022-11-23T16:08:00.620Z,6.77
2022-11-23T16:09:28.229Z,6.90
2022-11-23T16:10:32.082Z,6.89
2022-11-23T16:11:36.567Z,6.72
2022-11-23T16:12:51.385Z,6.89
2022-11-23T16:13:52.771Z,6.69
2022-11-23T16:14:56.058Z,6.63
2022-11-23T16:16:01.231Z,6.73
2022-11-23T16:17:17.778Z,6.72
2022-11-23T16:18:24.720Z,6.81
2022-11-23T16:19:31.370Z,6.74
2022-11-23T16:20:33.006Z,6.81
2022-11-23T16:21:34.472Z,6.82
2022-11-23T16:22:40.005Z,6.78
2022-11-23T16:23:54.191Z,6.74
2022-11-23T16:25:09.952Z,6.77
2022-11-23T16:26:13.116Z,6.70
2022-11-23T16:27:15.291Z,6.68
2022-11-23T16:28:22.578Z,6.69
2022-11-23T16:29:26.537Z,6.70
2022-11-23T16:30:36.420Z,6.72
2022-11-23T16:31:40.009Z,6.72
2022-11-23T16:32:44.962Z,6.73
2022-11-23T16:33:46.363Z,6.70
2022-11-23T16:34:48.087Z,6.66
2022-11-23T16:35:50.169Z,6.64
2022-11-23T16:36:52.846Z,6.62
2022-11-23T16:37:54.281Z,6.64
2022-11-23T16:38:59.686Z,6.51
2022-11-23T16:40:04.231Z,6.66
2022-11-23T16:41:05.706Z,6.68
2022-11-23T16:42:07.129Z,6.58
2022-11-23T16:43:12.516Z,6.58
2022-11-23T16:44:13.996Z,6.64
2022-11-23T16:45:15.619Z,6.63
2022-11-23T16:46:17.146Z,6.63
2022-11-23T16:47:24.438Z,6.62
2022-11-23T16:48:25.726Z,6.53
2022-11-23T16:49:27.102Z,6.44
2022-11-23T16:50:31.155Z,6.50
2022-11-23T16:51:32.520Z,6.43
2022-11-23T16:52:36.932Z,6.40
2022-11-23T16:54:11.453Z,6.36
2022-11-23T16:55:03.000Z,6.34
2022-11-23T16:56:04.693Z,6.23
2022-11-23T16:57:06.262Z,6.27
2022-11-23T16:58:16.605Z,6.21
2022-11-23T16:59:18.786Z,6.20
2022-11-23T17:00:22.423Z,6.19
2022-11-23T17:01:26.499Z,6.20
2022-11-23T17:02:27.989Z,6.26
2022-11-23T17:03:29.525Z,6.21
2022-11-23T17:04:31.195Z,6.22
2022-11-23T17:05:32.952Z,6.23
2022-11-23T17:06:34.309Z,6.19
2022-11-23T17:07:35.686Z,6.19
2022-11-23T17:08:37.132Z,6.12
2022-11-23T17:09:42.720Z,6.12
2022-11-23T17:10:44.241Z,6.01
2022-11-23T17:11:49.980Z,6.02
2022-11-23T17:12:54.555Z,6.05
2022-11-23T17:13:56.890Z,6.06
2022-11-23T17:14:59.626Z,6.04
2022-11-23T17:16:01.107Z,5.95
2022-11-23T17:17:03.694Z,6.00
2022-11-23T17:18:05.216Z,5.95
2022-11-23T17:19:24.509Z,5.90
2022-11-23T17:20:25.870Z,5.93
2022-11-23T17:21:27.386Z,5.89
2022-11-23T17:22:28.841Z,5.83
2022-11-23T17:23:30.171Z,5.85
2022-11-23T17:24:32.014Z,5.80
2022-11-23T17:25:34.901Z,5.78
2022-11-23T17:26:43.044Z,5.62
2022-11-23T17:27:46.130Z,5.61
2022-11-23T17:28:47.570Z,5.67
2022-11-23T17:29:56.026Z,5.65
2022-11-23T17:30:57.507Z,5.53
2022-11-23T17:31:59.032Z,5.51
2022-11-23T17:33:03.879Z,5.53
2022-11-23T17:34:05.239Z,5.41
2022-11-23T17:35:06.950Z,5.43
2022-11-23T17:36:09.636Z,5.47
2022-11-23T17:37:18.261Z,5.37
2022-11-23T17:38:24.999Z,5.33
2022-11-23T17:39:28.266Z,5.33
2022-11-23T17:40:30.081Z,5.35
2022-11-23T17:41:31.474Z,5.16
2022-11-23T17:42:35.773Z,5.09
2022-11-23T17:43:37.568Z,5.19
2022-11-23T17:44:39.172Z,5.20
2022-11-23T17:45:41.281Z,5.21
2022-11-23T17:46:43.996Z,5.12
2022-11-23T17:47:45.751Z,5.09
2022-11-23T17:48:55.139Z,5.15
2022-11-23T17:49:57.993Z,5.10
2022-11-23T17:50:59.620Z,5.07
2022-11-23T17:52:01.150Z,5.15
2022-11-23T17:53:02.591Z,5.05
2022-11-23T17:54:04.038Z,5.04
2022-11-23T17:55:06.088Z,4.91
2022-11-23T17:56:16.905Z,4.95
2022-11-23T17:57:27.551Z,4.95
2022-11-23T17:58:29.161Z,5.02
2022-11-23T17:59:31.281Z,5.04
2022-11-23T18:00:33.161Z,4.97
2022-11-23T18:01:34.604Z,4.95
2022-11-23T18:02:36.100Z,4.93
2022-11-23T18:03:37.555Z,4.99
2022-11-23T18:04:39.097Z,5.00
2022-11-23T18:05:40.442Z,5.01
